sensor_id;sensor_type;location;lat;lon;timestamp;pressure;altitude;pressure_sealevel;temperature;humidity
19797;BME280;10058;57.654;12.044;2023-02-12T00:02:12;102310.78;;;3.64;100.00
19797;BME280;10058;57.654;12.044;2023-02-12T00:07:40;102304.00;;;3.44;100.00
19797;BME280;10058;57.654;12.044;2023-02-12T00:10:05;102301.13;;;3.09;100.00
19797;BME280;10058;57.654;12.044;2023-02-12T00:12:31;102295.63;;;2.74;100.00
19797;BME280;10058;57.654;12.044;2023-02-12T00:14:56;102300.72;;;2.62;100.00
19797;BME280;10058;57.654;12.044;2023-02-12T00:17:21;102308.84;;;2.55;100.00
19797;BME280;10058;57.654;12.044;2023-02-12T00:19:46;102307.91;;;2.75;100.00
19797;BME280;10058;57.654;12.044;2023-02-12T00:22:12;102318.09;;;3.14;100.00
19797;BME280;10058;57.654;12.044;2023-02-12T00:27:40;102314.56;;;3.89;100.00
19797;BME280;10058;57.654;12.044;2023-02-12T00:30:05;102307.13;;;4.05;100.00
19797;BME280;10058;57.654;12.044;2023-02-12T00:32:30;102314.94;;;4.15;100.00
19797;BME280;10058;57.654;12.044;2023-02-12T00:34:56;102316.31;;;4.34;100.00
19797;BME280;10058;57.654;12.044;2023-02-12T00:37:21;102308.28;;;4.42;100.00
19797;BME280;10058;57.654;12.044;2023-02-12T00:39:46;102308.00;;;4.28;100.00
19797;BME280;10058;57.654;12.044;2023-02-12T00:42:11;102301.50;;;4.23;100.00
19797;BME280;10058;57.654;12.044;2023-02-12T00:44:36;102301.97;;;4.29;100.00
19797;BME280;10058;57.654;12.044;2023-02-12T00:50:04;102309.56;;;4.59;100.00
19797;BME280;10058;57.654;12.044;2023-02-12T00:52:30;102298.66;;;4.65;100.00
19797;BME280;10058;57.654;12.044;2023-02-12T00:54:55;102306.38;;;4.75;100.00
19797;BME280;10058;57.654;12.044;2023-02-12T00:57:20;102298.81;;;4.33;100.00
19797;BME280;10058;57.654;12.044;2023-02-12T00:59:45;102299.38;;;3.95;100.00
19797;BME280;10058;57.654;12.044;2023-02-12T01:02:11;102303.19;;;3.67;100.00
19797;BME280;10058;57.654;12.044;2023-02-12T01:07:39;102296.50;;;4.26;100.00
19797;BME280;10058;57.654;12.044;2023-02-12T01:10:05;102303.53;;;4.60;100.00
19797;BME280;10058;57.654;12.044;2023-02-12T01:12:30;102290.91;;;4.66;100.00
19797;BME280;10058;57.654;12.044;2023-02-12T01:14:56;102288.28;;;4.09;100.00
19797;BME280;10058;57.654;12.044;2023-02-12T01:17:21;102286.97;;;3.71;100.00
19797;BME280;10058;57.654;12.044;2023-02-12T01:19:46;102291.75;;;3.33;100.00
19797;BME280;10058;57.654;12.044;2023-02-12T01:22:11;102290.91;;;3.22;100.00
19797;BME280;10058;57.654;12.044;2023-02-12T01:27:39;102305.38;;;3.29;100.00
19797;BME280;10058;57.654;12.044;2023-02-12T01:30:05;102312.56;;;3.53;100.00
19797;BME280;10058;57.654;12.044;2023-02-12T01:32:31;102306.34;;;3.84;100.00
19797;BME280;10058;57.654;12.044;2023-02-12T01:34:56;102303.22;;;4.00;100.00
19797;BME280;10058;57.654;12.044;2023-02-12T01:37:21;102304.13;;;3.89;100.00
19797;BME280;10058;57.654;12.044;2023-02-12T01:39:46;102301.50;;;3.89;100.00
19797;BME280;10058;57.654;12.044;2023-02-12T01:42:12;102303.72;;;4.06;100.00
19797;BME280;10058;57.654;12.044;2023-02-12T01:47:42;102304.09;;;4.68;100.00
19797;BME280;10058;57.654;12.044;2023-02-12T01:50:08;102303.91;;;5.00;100.00
19797;BME280;10058;57.654;12.044;2023-02-12T01:52:35;102301.63;;;5.16;100.00
19797;BME280;10058;57.654;12.044;2023-02-12T01:55:04;102301.94;;;5.20;100.00
19797;BME280;10058;57.654;12.044;2023-02-12T01:57:32;102301.69;;;5.29;100.00
19797;BME280;10058;57.654;12.044;2023-02-12T01:59:59;102295.69;;;4.83;100.00
19797;BME280;10058;57.654;12.044;2023-02-12T02:02:25;102298.66;;;4.65;100.00
19797;BME280;10058;57.654;12.044;2023-02-12T02:07:54;102289.84;;;5.34;100.00
19797;BME280;10058;57.654;12.044;2023-02-12T02:10:19;102291.28;;;5.42;100.00
19797;BME280;10058;57.654;12.044;2023-02-12T02:12:44;102280.47;;;5.49;100.00
19797;BME280;10058;57.654;12.044;2023-02-12T02:15:28;102282.03;;;5.59;100.00
19797;BME280;10058;57.654;12.044;2023-02-12T02:23:33;102289.44;;;5.65;100.00
19797;BME280;10058;57.654;12.044;2023-02-12T02:29:19;102292.38;;;5.69;100.00
19797;BME280;10058;57.654;12.044;2023-02-12T02:31:52;102293.03;;;5.78;100.00
19797;BME280;10058;57.654;12.044;2023-02-12T02:34:28;102287.78;;;5.78;100.00
19797;BME280;10058;57.654;12.044;2023-02-12T02:39:24;102289.25;;;5.86;100.00
19797;BME280;10058;57.654;12.044;2023-02-12T02:41:54;102280.47;;;5.86;100.00
19797;BME280;10058;57.654;12.044;2023-02-12T02:47:25;102297.31;;;6.01;100.00
19797;BME280;10058;57.654;12.044;2023-02-12T02:50:01;102296.13;;;6.09;100.00
19797;BME280;10058;57.654;12.044;2023-02-12T02:52:30;102297.25;;;6.13;100.00
19797;BME280;10058;57.654;12.044;2023-02-12T02:55:00;102298.16;;;6.13;100.00
19797;BME280;10058;57.654;12.044;2023-02-12T02:57:30;102304.44;;;6.15;100.00
19797;BME280;10058;57.654;12.044;2023-02-12T03:00:42;102291.91;;;6.24;100.00
19797;BME280;10058;57.654;12.044;2023-02-12T03:02:52;102297.41;;;6.27;100.00
19797;BME280;10058;57.654;12.044;2023-02-12T03:08:23;102296.81;;;6.32;100.00
19797;BME280;10058;57.654;12.044;2023-02-12T03:10:55;102292.78;;;6.37;100.00
19797;BME280;10058;57.654;12.044;2023-02-12T03:13:23;102296.31;;;6.37;100.00
19797;BME280;10058;57.654;12.044;2023-02-12T03:15:50;102292.28;;;6.42;100.00
19797;BME280;10058;57.654;12.044;2023-02-12T03:18:22;102304.50;;;6.42;100.00
19797;BME280;10058;57.654;12.044;2023-02-12T03:20:49;102300.69;;;6.50;100.00
19797;BME280;10058;57.654;12.044;2023-02-12T03:23:22;102300.69;;;6.50;100.00
19797;BME280;10058;57.654;12.044;2023-02-12T03:28:51;102296.25;;;6.62;100.00
19797;BME280;10058;57.654;12.044;2023-02-12T03:31:24;102299.91;;;6.64;100.00
19797;BME280;10058;57.654;12.044;2023-02-12T03:36:25;102298.91;;;6.62;100.00
19797;BME280;10058;57.654;12.044;2023-02-12T03:38:52;102304.34;;;6.65;100.00
19797;BME280;10058;57.654;12.044;2023-02-12T03:41:27;102299.59;;;6.59;100.00
19797;BME280;10058;57.654;12.044;2023-02-12T03:43:58;102312.00;;;6.49;100.00
19797;BME280;10058;57.654;12.044;2023-02-12T03:49:40;102335.44;;;6.46;100.00
19797;BME280;10058;57.654;12.044;2023-02-12T03:52:10;102342.50;;;6.47;100.00
19797;BME280;10058;57.654;12.044;2023-02-12T03:54:35;102350.97;;;6.43;100.00
19797;BME280;10058;57.654;12.044;2023-02-12T03:57:02;102347.25;;;6.39;100.00
19797;BME280;10058;57.654;12.044;2023-02-12T03:59:29;102353.56;;;6.54;100.00
19797;BME280;10058;57.654;12.044;2023-02-12T04:01:55;102350.84;;;6.66;100.00
19797;BME280;10058;57.654;12.044;2023-02-12T04:04:21;102353.66;;;6.56;100.00
19797;BME280;10058;57.654;12.044;2023-02-12T04:09:50;102359.44;;;6.63;100.00
19797;BME280;10058;57.654;12.044;2023-02-12T04:12:20;102363.41;;;6.83;100.00
19797;BME280;10058;57.654;12.044;2023-02-12T04:14:55;102347.19;;;6.64;100.00
19797;BME280;10058;57.654;12.044;2023-02-12T04:30:58;102342.78;;;6.76;100.00
19797;BME280;10058;57.654;12.044;2023-02-12T04:33:26;102346.41;;;6.78;100.00
19797;BME280;10058;57.654;12.044;2023-02-12T04:35:59;102344.09;;;6.83;100.00
19797;BME280;10058;57.654;12.044;2023-02-12T04:38:34;102340.34;;;6.79;100.00
19797;BME280;10058;57.654;12.044;2023-02-12T04:41:01;102335.91;;;6.78;100.00
19797;BME280;10058;57.654;12.044;2023-02-12T04:43:27;102341.38;;;6.81;100.00
19797;BME280;10058;57.654;12.044;2023-02-12T04:48:56;102345.44;;;6.89;100.00
19797;BME280;10058;57.654;12.044;2023-02-12T04:51:22;102347.44;;;6.93;100.00
19797;BME280;10058;57.654;12.044;2023-02-12T04:53:47;102342.41;;;6.96;100.00
19797;BME280;10058;57.654;12.044;2023-02-12T04:56:13;102354.72;;;6.84;100.00
19797;BME280;10058;57.654;12.044;2023-02-12T04:58:39;102352.69;;;6.93;100.00
19797;BME280;10058;57.654;12.044;2023-02-12T05:01:04;102357.97;;;6.93;100.00
19797;BME280;10058;57.654;12.044;2023-02-12T05:03:29;102354.53;;;6.94;100.00
19797;BME280;10058;57.654;12.044;2023-02-12T05:08:57;102360.63;;;7.07;100.00
19797;BME280;10058;57.654;12.044;2023-02-12T05:11:23;102353.13;;;6.99;100.00
19797;BME280;10058;57.654;12.044;2023-02-12T05:13:48;102342.81;;;7.03;100.00
19797;BME280;10058;57.654;12.044;2023-02-12T05:16:14;102347.28;;;7.04;100.00
19797;BME280;10058;57.654;12.044;2023-02-12T05:18:39;102360.63;;;7.07;100.00
19797;BME280;10058;57.654;12.044;2023-02-12T05:21:04;102307.31;;;6.83;100.00
19797;BME280;10058;57.654;12.044;2023-02-12T05:23:31;102351.03;;;7.07;100.00
19797;BME280;10058;57.654;12.044;2023-02-12T05:28:59;102343.41;;;7.12;100.00
19797;BME280;10058;57.654;12.044;2023-02-12T05:31:24;102337.66;;;7.17;100.00
19797;BME280;10058;57.654;12.044;2023-02-12T05:33:50;102334.34;;;7.07;100.00
19797;BME280;10058;57.654;12.044;2023-02-12T05:36:24;102343.25;;;7.09;100.00
19797;BME280;10058;57.654;12.044;2023-02-12T05:38:50;102328.44;;;7.11;100.00
19797;BME280;10058;57.654;12.044;2023-02-12T05:41:16;102327.66;;;7.12;100.00
19797;BME280;10058;57.654;12.044;2023-02-12T05:43:42;102330.09;;;7.09;100.00
19797;BME280;10058;57.654;12.044;2023-02-12T05:49:10;102329.09;;;7.07;100.00
19797;BME280;10058;57.654;12.044;2023-02-12T05:51:36;102327.47;;;7.09;100.00
19797;BME280;10058;57.654;12.044;2023-02-12T05:54:02;102321.19;;;7.07;100.00
19797;BME280;10058;57.654;12.044;2023-02-12T05:56:31;102321.31;;;7.08;100.00
19797;BME280;10058;57.654;12.044;2023-02-12T05:58:58;102317.13;;;7.12;100.00
19797;BME280;10058;57.654;12.044;2023-02-12T06:01:33;102311.88;;;7.12;100.00
19797;BME280;10058;57.654;12.044;2023-02-12T06:03:59;102326.25;;;7.17;100.00
19797;BME280;10058;57.654;12.044;2023-02-12T06:09:27;102327.84;;;7.15;100.00
19797;BME280;10058;57.654;12.044;2023-02-12T06:11:53;102330.59;;;7.16;100.00
19797;BME280;10058;57.654;12.044;2023-02-12T06:14:18;102327.47;;;7.22;100.00
19797;BME280;10058;57.654;12.044;2023-02-12T06:16:47;102323.41;;;7.27;100.00
19797;BME280;10058;57.654;12.044;2023-02-12T06:19:13;102334.13;;;7.30;100.00
19797;BME280;10058;57.654;12.044;2023-02-12T06:21:38;102332.28;;;7.29;100.00
19797;BME280;10058;57.654;12.044;2023-02-12T06:24:03;102321.38;;;7.36;100.00
19797;BME280;10058;57.654;12.044;2023-02-12T06:29:31;102338.78;;;7.34;100.00
19797;BME280;10058;57.654;12.044;2023-02-12T06:31:56;102344.63;;;7.30;100.00
19797;BME280;10058;57.654;12.044;2023-02-12T06:34:21;102344.63;;;7.30;100.00
19797;BME280;10058;57.654;12.044;2023-02-12T06:36:47;102351.50;;;7.28;100.00
19797;BME280;10058;57.654;12.044;2023-02-12T06:39:13;102348.50;;;7.35;100.00
19797;BME280;10058;57.654;12.044;2023-02-12T06:41:38;102356.91;;;7.43;100.00
19797;BME280;10058;57.654;12.044;2023-02-12T06:44:04;102358.00;;;7.33;100.00
19797;BME280;10058;57.654;12.044;2023-02-12T06:49:32;102364.47;;;7.38;100.00
19797;BME280;10058;57.654;12.044;2023-02-12T06:51:57;102362.44;;;7.34;100.00
19797;BME280;10058;57.654;12.044;2023-02-12T06:54:22;102361.03;;;7.39;100.00
19797;BME280;10058;57.654;12.044;2023-02-12T06:56:47;102362.97;;;7.42;100.00
19797;BME280;10058;57.654;12.044;2023-02-12T06:59:13;102369.94;;;7.41;100.00
19797;BME280;10058;57.654;12.044;2023-02-12T07:01:42;102360.84;;;7.36;100.00
19797;BME280;10058;57.654;12.044;2023-02-12T07:04:07;102361.25;;;7.42;100.00
19797;BME280;10058;57.654;12.044;2023-02-12T07:09:36;102366.31;;;7.39;100.00
19797;BME280;10058;57.654;12.044;2023-02-12T07:12:01;102369.13;;;7.42;100.00
19797;BME280;10058;57.654;12.044;2023-02-12T07:14:27;102368.13;;;7.40;100.00
19797;BME280;10058;57.654;12.044;2023-02-12T07:16:55;102378.31;;;7.49;100.00
19797;BME280;10058;57.654;12.044;2023-02-12T07:19:21;102367.09;;;7.51;100.00
19797;BME280;10058;57.654;12.044;2023-02-12T07:21:46;102375.41;;;7.44;100.00
19797;BME280;10058;57.654;12.044;2023-02-12T07:24:12;102371.94;;;7.45;100.00
19797;BME280;10058;57.654;12.044;2023-02-12T07:29:46;102368.91;;;7.52;100.00
19797;BME280;10058;57.654;12.044;2023-02-12T07:32:12;102358.59;;;7.55;100.00
19797;BME280;10058;57.654;12.044;2023-02-12T07:34:37;102362.44;;;7.60;100.00
19797;BME280;10058;57.654;12.044;2023-02-12T07:37:02;102359.81;;;7.47;100.00
19797;BME280;10058;57.654;12.044;2023-02-12T07:39:27;102368.91;;;7.52;100.00
19797;BME280;10058;57.654;12.044;2023-02-12T07:41:52;102368.72;;;7.49;100.00
19797;BME280;10058;57.654;12.044;2023-02-12T07:44:20;102363.66;;;7.52;100.00
19797;BME280;10058;57.654;12.044;2023-02-12T07:49:48;102362.03;;;7.54;100.00
19797;BME280;10058;57.654;12.044;2023-02-12T07:52:13;102357.06;;;7.46;100.00
19797;BME280;10058;57.654;12.044;2023-02-12T07:54:38;102352.91;;;7.62;100.00
19797;BME280;10058;57.654;12.044;2023-02-12T07:57:03;102345.00;;;7.62;100.00
19797;BME280;10058;57.654;12.044;2023-02-12T07:59:28;102363.03;;;7.69;100.00
19797;BME280;10058;57.654;12.044;2023-02-12T08:01:53;102362.44;;;7.60;100.00
19797;BME280;10058;57.654;12.044;2023-02-12T08:04:21;102362.81;;;7.66;100.00
19797;BME280;10058;57.654;12.044;2023-02-12T08:09:49;102356.47;;;8.04;100.00
19797;BME280;10058;57.654;12.044;2023-02-12T08:12:14;102342.47;;;8.05;100.00
19797;BME280;10058;57.654;12.044;2023-02-12T08:14:40;102337.25;;;8.20;100.00
19797;BME280;10058;57.654;12.044;2023-02-12T08:17:05;102327.88;;;8.10;100.00
19797;BME280;10058;57.654;12.044;2023-02-12T08:19:30;102331.94;;;8.05;100.00
19797;BME280;10058;57.654;12.044;2023-02-12T08:21:55;102338.31;;;7.67;100.00
19797;BME280;10058;57.654;12.044;2023-02-12T08:24:21;102348.75;;;7.79;100.00
19797;BME280;10058;57.654;12.044;2023-02-12T08:29:49;102336.91;;;7.73;100.00
19797;BME280;10058;57.654;12.044;2023-02-12T08:32:15;102338.94;;;7.77;100.00
19797;BME280;10058;57.654;12.044;2023-02-12T08:34:41;102338.06;;;7.91;100.00
19797;BME280;10058;57.654;12.044;2023-02-12T08:37:06;102340.09;;;7.95;100.00
19797;BME280;10058;57.654;12.044;2023-02-12T08:39:31;102329.84;;;8.27;100.00
19797;BME280;10058;57.654;12.044;2023-02-12T08:41:57;102330.13;;;8.32;100.00
19797;BME280;10058;57.654;12.044;2023-02-12T08:44:23;102318.81;;;8.48;100.00
19797;BME280;10058;57.654;12.044;2023-02-12T08:49:51;102331.38;;;7.96;100.00
19797;BME280;10058;57.654;12.044;2023-02-12T08:52:16;102329.69;;;8.11;100.00
19797;BME280;10058;57.654;12.044;2023-02-12T08:54:43;102330.53;;;8.10;100.00
19797;BME280;10058;57.654;12.044;2023-02-12T08:57:08;102323.63;;;8.12;100.00
19797;BME280;10058;57.654;12.044;2023-02-12T08:59:33;102324.25;;;8.08;100.00
19797;BME280;10058;57.654;12.044;2023-02-12T09:01:58;102337.00;;;8.02;100.00
19797;BME280;10058;57.654;12.044;2023-02-12T09:07:27;102348.28;;;8.27;100.00
19797;BME280;10058;57.654;12.044;2023-02-12T09:09:52;102351.19;;;8.04;100.00
19797;BME280;10058;57.654;12.044;2023-02-12T09:12:17;102354.59;;;8.16;100.00
19797;BME280;10058;57.654;12.044;2023-02-12T09:14:42;102351.44;;;8.50;100.00
19797;BME280;10058;57.654;12.044;2023-02-12T09:17:07;102342.06;;;8.40;100.00
19797;BME280;10058;57.654;12.044;2023-02-12T09:19:33;102342.72;;;8.23;100.00
19797;BME280;10058;57.654;12.044;2023-02-12T09:21:58;102354.13;;;8.36;100.00
19797;BME280;10058;57.654;12.044;2023-02-12T09:27:26;102355.78;;;8.21;100.00
19797;BME280;10058;57.654;12.044;2023-02-12T09:29:51;102362.22;;;8.40;100.00
19797;BME280;10058;57.654;12.044;2023-02-12T09:32:16;102358.97;;;8.44;100.00
19797;BME280;10058;57.654;12.044;2023-02-12T09:34:41;102357.25;;;8.44;100.00
19797;BME280;10058;57.654;12.044;2023-02-12T09:37:06;102352.19;;;8.47;100.00
19797;BME280;10058;57.654;12.044;2023-02-12T09:39:31;102346.34;;;8.53;100.00
19797;BME280;10058;57.654;12.044;2023-02-12T09:47:43;102342.81;;;8.67;100.00
19797;BME280;10058;57.654;12.044;2023-02-12T09:50:18;102339.56;;;8.71;100.00
19797;BME280;10058;57.654;12.044;2023-02-12T09:52:49;102335.38;;;8.75;100.00
19797;BME280;10058;57.654;12.044;2023-02-12T09:55:15;102340.28;;;8.83;100.00
19797;BME280;10058;57.654;12.044;2023-02-12T09:57:41;102340.06;;;8.51;100.00
19797;BME280;10058;57.654;12.044;2023-02-12T10:00:08;102341.91;;;8.66;100.00
19797;BME280;10058;57.654;12.044;2023-02-12T10:02:35;102332.66;;;8.88;100.00
19797;BME280;10058;57.654;12.044;2023-02-12T10:08:17;102338.09;;;8.91;100.00
19797;BME280;10058;57.654;12.044;2023-02-12T10:10:46;102335.00;;;8.83;100.00
19797;BME280;10058;57.654;12.044;2023-02-12T10:15:48;102331.91;;;9.05;100.00
19797;BME280;10058;57.654;12.044;2023-02-12T10:18:30;102338.66;;;9.15;100.00
19797;BME280;10058;57.654;12.044;2023-02-12T10:21:18;102335.72;;;9.10;100.00
19797;BME280;10058;57.654;12.044;2023-02-12T10:29:19;102330.31;;;9.38;100.00
19797;BME280;10058;57.654;12.044;2023-02-12T10:31:47;102321.69;;;9.26;100.00
19797;BME280;10058;57.654;12.044;2023-02-12T10:34:16;102319.28;;;9.45;100.00
19797;BME280;10058;57.654;12.044;2023-02-12T10:36:43;102313.09;;;9.45;100.00
19797;BME280;10058;57.654;12.044;2023-02-12T10:41:35;102314.66;;;9.41;100.00
19797;BME280;10058;57.654;12.044;2023-02-12T10:44:01;102311.50;;;9.32;100.00
19797;BME280;10058;57.654;12.044;2023-02-12T10:49:30;102317.47;;;9.44;100.00
19797;BME280;10058;57.654;12.044;2023-02-12T10:54:43;102314.38;;;9.51;100.00
19797;BME280;10058;57.654;12.044;2023-02-12T10:57:10;102314.19;;;9.48;100.00
19797;BME280;10058;57.654;12.044;2023-02-12T10:59:36;102313.31;;;9.33;100.00
19797;BME280;10058;57.654;12.044;2023-02-12T11:02:02;102308.91;;;9.48;100.00
19797;BME280;10058;57.654;12.044;2023-02-12T11:04:29;102318.50;;;9.62;100.00
19797;BME280;10058;57.654;12.044;2023-02-12T11:09:58;102313.78;;;10.04;100.00
19797;BME280;10058;57.654;12.044;2023-02-12T11:12:33;102303.03;;;10.01;100.00
19797;BME280;10058;57.654;12.044;2023-02-12T11:15:05;102306.16;;;9.94;100.00
19797;BME280;10058;57.654;12.044;2023-02-12T11:17:38;102293.28;;;10.16;100.00
19797;BME280;10058;57.654;12.044;2023-02-12T11:20:05;102301.53;;;10.06;100.00
19797;BME280;10058;57.654;12.044;2023-02-12T11:22:33;102300.47;;;10.51;100.00
19797;BME280;10058;57.654;12.044;2023-02-12T11:28:15;102307.00;;;10.09;100.00
19797;BME280;10058;57.654;12.044;2023-02-12T11:30:51;102294.13;;;10.31;100.00
19797;BME280;10058;57.654;12.044;2023-02-12T11:33:35;102293.88;;;10.43;100.00
19797;BME280;10058;57.654;12.044;2023-02-12T11:36:02;102299.44;;;10.31;100.00
19797;BME280;10058;57.654;12.044;2023-02-12T11:38:29;102294.53;;;10.23;100.00
19797;BME280;10058;57.654;12.044;2023-02-12T11:40:56;102289.22;;;10.21;100.00
19797;BME280;10058;57.654;12.044;2023-02-12T11:43:23;102295.72;;;10.62;100.00
19797;BME280;10058;57.654;12.044;2023-02-12T11:48:52;102296.44;;;10.25;100.00
19797;BME280;10058;57.654;12.044;2023-02-12T11:51:20;102288.78;;;10.64;100.00
19797;BME280;10058;57.654;12.044;2023-02-12T11:53:49;102293.78;;;10.09;100.00
19797;BME280;10058;57.654;12.044;2023-02-12T11:56:15;102302.22;;;10.18;100.00
19797;BME280;10058;57.654;12.044;2023-02-12T11:58:41;102305.38;;;10.27;100.00
19797;BME280;10058;57.654;12.044;2023-02-12T12:09:00;102297.44;;;10.27;100.00
19797;BME280;10058;57.654;12.044;2023-02-12T12:14:00;102288.50;;;9.93;100.00
19797;BME280;10058;57.654;12.044;2023-02-12T12:16:29;102292.91;;;10.25;100.00
19797;BME280;10058;57.654;12.044;2023-02-12T12:19:19;102283.81;;;10.03;100.00
19797;BME280;10058;57.654;12.044;2023-02-12T12:30:10;102288.84;;;9.99;100.00
19797;BME280;10058;57.654;12.044;2023-02-12T12:32:39;102294.13;;;9.99;100.00
19797;BME280;10058;57.654;12.044;2023-02-12T12:35:08;102293.72;;;10.24;100.00
19797;BME280;10058;57.654;12.044;2023-02-12T12:37:36;102286.19;;;9.99;100.00
19797;BME280;10058;57.654;12.044;2023-02-12T12:40:09;102289.84;;;10.17;100.00
19797;BME280;10058;57.654;12.044;2023-02-12T13:01:44;102296.28;;;10.22;100.00
19797;BME280;10058;57.654;12.044;2023-02-12T13:10:02;102290.28;;;10.59;100.00
19797;BME280;10058;57.654;12.044;2023-02-12T13:15:14;102294.94;;;10.80;100.00
19797;BME280;10058;57.654;12.044;2023-02-12T13:17:50;102296.69;;;10.80;100.00
19797;BME280;10058;57.654;12.044;2023-02-12T13:28:34;102299.91;;;10.40;100.00
19797;BME280;10058;57.654;12.044;2023-02-12T13:31:00;102293.44;;;10.52;100.00
19797;BME280;10058;57.654;12.044;2023-02-12T13:33:38;102292.91;;;10.25;100.00
19797;BME280;10058;57.654;12.044;2023-02-12T13:36:05;102297.59;;;10.30;100.00
19797;BME280;10058;57.654;12.044;2023-02-12T13:38:35;102291.47;;;10.15;100.00
19797;BME280;10058;57.654;12.044;2023-02-12T13:41:03;102286.22;;;10.31;100.00
19797;BME280;10058;57.654;12.044;2023-02-12T13:52:08;102289.22;;;10.21;100.00
19797;BME280;10058;57.654;12.044;2023-02-12T13:57:00;102298.00;;;10.22;100.00
19797;BME280;10058;57.654;12.044;2023-02-12T14:01:54;102293.31;;;10.00;100.00
19797;BME280;10058;57.654;12.044;2023-02-12T14:12:16;102293.28;;;10.49;100.00
19797;BME280;10058;57.654;12.044;2023-02-12T14:14:56;102290.06;;;10.05;100.00
19797;BME280;10058;57.654;12.044;2023-02-12T14:19:57;102287.50;;;10.39;100.00
19797;BME280;10058;57.654;12.044;2023-02-12T14:27:58;102283.91;;;10.37;100.00
19797;BME280;10058;57.654;12.044;2023-02-12T14:30:34;102284.19;;;10.43;100.00
19797;BME280;10058;57.654;12.044;2023-02-12T14:35:32;102283.22;;;10.25;100.00
19797;BME280;10058;57.654;12.044;2023-02-12T14:37:59;102284.88;;;10.23;100.00
19797;BME280;10058;57.654;12.044;2023-02-12T14:43:00;102289.31;;;10.08;100.00
19797;BME280;10058;57.654;12.044;2023-02-12T14:48:44;102281.47;;;10.09;100.00
19797;BME280;10058;57.654;12.044;2023-02-12T14:51:13;102287.19;;;10.17;100.00
19797;BME280;10058;57.654;12.044;2023-02-12T14:53:40;102287.03;;;9.98;100.00
19797;BME280;10058;57.654;12.044;2023-02-12T14:56:05;102294.69;;;9.93;100.00
19797;BME280;10058;57.654;12.044;2023-02-12T14:58:33;102307.81;;;9.92;100.00
19797;BME280;10058;57.654;12.044;2023-02-12T15:00:59;102299.56;;;9.86;100.00
19797;BME280;10058;57.654;12.044;2023-02-12T15:03:39;102303.50;;;9.77;100.00
19797;BME280;10058;57.654;12.044;2023-02-12T15:09:10;102302.84;;;9.65;100.00
19797;BME280;10058;57.654;12.044;2023-02-12T15:11:42;102308.69;;;9.60;100.00
19797;BME280;10058;57.654;12.044;2023-02-12T15:14:21;102306.91;;;9.44;100.00
19797;BME280;10058;57.654;12.044;2023-02-12T15:19:26;102303.13;;;9.55;100.00
19797;BME280;10058;57.654;12.044;2023-02-12T15:21:54;102308.56;;;9.42;100.00
19797;BME280;10058;57.654;12.044;2023-02-12T15:27:22;102297.91;;;9.10;100.00
19797;BME280;10058;57.654;12.044;2023-02-12T15:29:49;102295.72;;;9.02;100.00
19797;BME280;10058;57.654;12.044;2023-02-12T15:32:18;102290.63;;;8.91;100.00
19797;BME280;10058;57.654;12.044;2023-02-12T15:34:46;102301.00;;;8.88;100.00
19797;BME280;10058;57.654;12.044;2023-02-12T15:37:16;102300.91;;;8.86;100.00
19797;BME280;10058;57.654;12.044;2023-02-12T15:39:43;102303.66;;;8.73;100.00
19797;BME280;10058;57.654;12.044;2023-02-12T15:47:55;102304.38;;;8.70;100.00
19797;BME280;10058;57.654;12.044;2023-02-12T15:50:20;102312.28;;;8.56;100.00
19797;BME280;10058;57.654;12.044;2023-02-12T15:52:46;102307.91;;;8.56;100.00
19797;BME280;10058;57.654;12.044;2023-02-12T15:55:15;102320.38;;;8.59;100.00
19797;BME280;10058;57.654;12.044;2023-02-12T15:57:40;102312.72;;;8.49;100.00
19797;BME280;10058;57.654;12.044;2023-02-12T16:00:08;102307.13;;;8.29;100.00
19797;BME280;10058;57.654;12.044;2023-02-12T16:02:33;102318.47;;;8.28;100.00
19797;BME280;10058;57.654;12.044;2023-02-12T16:08:01;102323.97;;;8.18;100.00
19797;BME280;10058;57.654;12.044;2023-02-12T16:10:27;102327.44;;;8.17;100.00
19797;BME280;10058;57.654;12.044;2023-02-12T16:12:52;102328.25;;;8.16;100.00
19797;BME280;10058;57.654;12.044;2023-02-12T16:15:22;102324.19;;;8.21;100.00
19797;BME280;10058;57.654;12.044;2023-02-12T16:17:47;102324.44;;;8.11;100.00
19797;BME280;10058;57.654;12.044;2023-02-12T16:22:43;102323.44;;;8.09;100.00
19797;BME280;10058;57.654;12.044;2023-02-12T16:30:38;102341.91;;;7.96;100.00
19797;BME280;10058;57.654;12.044;2023-02-12T16:35:59;102338.44;;;7.97;100.00
19797;BME280;10058;57.654;12.044;2023-02-12T16:43:47;102356.66;;;8.07;100.00
19797;BME280;10058;57.654;12.044;2023-02-12T16:49:17;102356.66;;;8.07;100.00
19797;BME280;10058;57.654;12.044;2023-02-12T16:51:43;102354.63;;;8.03;100.00
19797;BME280;10058;57.654;12.044;2023-02-12T16:54:28;102362.63;;;8.04;100.00
19797;BME280;10058;57.654;12.044;2023-02-12T16:56:54;102350.78;;;7.98;100.00
19797;BME280;10058;57.654;12.044;2023-02-12T16:59:19;102366.03;;;7.89;100.00
19797;BME280;10058;57.654;12.044;2023-02-12T17:01:58;102387.84;;;8.01;100.00
19797;BME280;10058;57.654;12.044;2023-02-12T17:07:26;102374.84;;;8.17;100.00
19797;BME280;10058;57.654;12.044;2023-02-12T17:09:55;102374.28;;;8.08;100.00
19797;BME280;10058;57.654;12.044;2023-02-12T17:12:20;102382.13;;;8.21;100.00
19797;BME280;10058;57.654;12.044;2023-02-12T17:14:45;102380.50;;;8.23;100.00
19797;BME280;10058;57.654;12.044;2023-02-12T17:17:11;102386.16;;;8.29;100.00